Bookmark and Share
Track history (hours):
 

Helena

Last reported at 2014-Apr-15 01:33 UTC. Time now 2014-Apr-19 06:53 UTC.
Position N 55°40' E 015°32'.

Length 169 m; draft 6.4 m.

Type: Cargo ship. MMSI: 265145000.

NotesDate/timePositionNaut miles runAvg speedWind from/ knotsBaromVisibWave heightAir tempDewpointWater temp
2014-Apr-15 01:33N 55°40' E 015°32'1616.1
2014-Apr-15 00:34N 55°33' E 015°07'1616.4
2014-Apr-14 23:34N 55°25' E 014°41'1615.9
2014-Apr-14 22:34N 55°13' E 014°23'1616.0
2014-Apr-14 21:34N 55°01' E 014°04'1716.5
2014-Apr-14 20:34N 54°55' E 013°37'1616.4
2014-Apr-14 19:34N 54°50' E 013°10'1616.2
2014-Apr-14 18:34N 54°44' E 012°44'1616.2
2014-Apr-14 17:34N 54°34' E 012°22'1515.4
2014-Apr-14 16:34N 54°24' E 012°02'1616.2
2014-Apr-14 15:33N 54°15' E 011°38'1715.8
2014-Apr-14 14:30N 54°07' E 011°14'5 0.2
2014-Apr-13 10:26N 54°05' E 011°06'1213.6
2014-Apr-13 09:33N 54°13' E 011°23'1413.7
2014-Apr-13 08:33N 54°20' E 011°42'1212.4
2014-Apr-13 07:33N 54°26' E 012°01'1111.2
2014-Apr-13 06:33N 54°34' E 012°14'1313.0
2014-Apr-13 05:34N 54°43' E 012°31'1413.7
2014-Apr-13 04:33N 54°49' E 012°52'1413.6
2014-Apr-13 03:33N 54°54' E 013°14'1313.0
2014-Apr-13 02:33N 54°58' E 013°35'1413.4
2014-Apr-13 01:32N 55°03' E 013°58'1212.7
2014-Apr-13 00:33N 55°11' E 014°14'1313.4
2014-Apr-12 23:33N 55°21' E 014°29'1312.9
2014-Apr-12 22:33N 55°29' E 014°47'1413.5
2014-Apr-12 21:34N 55°36' E 015°07'1413.8
2014-Apr-12 20:33N 55°43' E 015°28'1613.8
2014-Apr-12 19:24N 55°52' E 015°53'1113.6
2014-Apr-12 18:33N 55°58' E 016°10'1313.5
2014-Apr-12 17:33N 56°05' E 016°31'  
2014-Apr-08 02:29N 55°38' E 015°23'1516.0
2014-Apr-08 01:33N 55°31' E 015°00'1615.8
2014-Apr-08 00:33N 55°22' E 014°38'1615.9
2014-Apr-07 23:33N 55°10' E 014°20'1515.5
2014-Apr-07 22:33N 54°59' E 013°59'1615.9
2014-Apr-07 21:33N 54°54' E 013°33'1616.0
2014-Apr-07 20:33N 54°49' E 013°07'1615.6
2014-Apr-07 19:33N 54°41' E 012°43'3014.8
2014-Apr-07 17:33N 54°24' E 012°02'1515.3
2014-Apr-07 16:33N 54°16' E 011°39'1615.8
2014-Apr-07 15:33N 54°08' E 011°16'7 0.2
2014-Apr-06 09:25N 54°05' E 011°06'1213.4
2014-Apr-06 08:33N 54°12' E 011°21'1312.8
2014-Apr-06 07:33N 54°19' E 011°40'1313.1
2014-Apr-06 06:34N 54°26' E 011°59'1211.7
2014-Apr-06 05:33N 54°34' E 012°13'1212.3
2014-Apr-06 04:33N 54°42' E 012°29'1313.1
2014-Apr-06 03:33N 54°49' E 012°49'1313.3
2014-Apr-06 02:33N 54°53' E 013°11'1313.5
2014-Apr-06 01:33N 54°57' E 013°33'1413.4
2014-Apr-06 00:32N 55°02' E 013°55'1212.8
2014-Apr-05 23:33N 55°10' E 014°12'1312.9
2014-Apr-05 22:33N 55°20' E 014°26'1313.2
2014-Apr-05 21:33N 55°29' E 014°44'1313.3
2014-Apr-05 20:33N 55°36' E 015°04'1313.3
2014-Apr-05 19:33N 55°42' E 015°24'1413.6
2014-Apr-05 18:33N 55°49' E 015°45'1413.6
2014-Apr-05 17:33N 55°56' E 016°06'1413.6
2014-Apr-05 16:33N 56°03' E 016°27'  

Dump ship's entire track history

sailing weather and tide predictions

Helena — SCGL — position and weather